Terminal Aerodrome Forecast
Issued by NWS Chicago, IL

Home | Current Version | Previous Version | Graphics & Text | Print | Product List | Glossary On
Versions: 1 2 3 4 5 6 7 8 9 10 11 12 13 14 15 16 17 18 19 20 21 22 23 24 25 26 27 28 29 30 31 32
000
FTUS43 KLOT 260900 AAB
TAFRFD
TAF AMD
KRFD 260911Z 2609/2706 19012KT P6SM BKN200 WS020/23040KT
     FM261500 19013KT P6SM BKN150
     FM262000 21008KT P6SM SCT020 OVC100
     FM270200 17005KT P6SM OVC015=

USA.gov is the U.S. government's official web portal to all federal, state and local government web resources and services.